Muar, Malaysia
Current Conditions -  °F | °C
As of 3:00 AM on Wednesday 28 Jan 2015 (Local Time) from WMKM Reporting Station
Broken Clouds Broken Clouds  
Wind Chill: 75°   Ceiling: 28000
Heat Index: 75°   Visibility: 6mi
Dew Point: 72°   Wind: 7mph
Humidity: 89%   Direction: 30°NNE
Pressure: 29.85"   Gusts: NA
Location:  2.04°N, 102.57°E
Report Text: WMKM 271900Z 03006KT 340V080 9999 FEW030 BKN280 24/22 Q1011
Loading
Personal Weather Stations






























Interactive Weather Map New forecast layout! Learn more

10-Day Weather Forecast

Advertisements
Track Severe Weather on mobile